Time;durP1;ratioP1;P1;durP2;ratioP2;P2;SDS_P1;SDS_P2;PMS_P1;PMS_P2;Temp;Humidity;BMP_temperature;BMP_pressure;BME280_temperature;BME280_humidity;BME280_pressure;Samples;Min_cycle;Max_cycle;Signal;HPM_P1;HPM_P2
2022/02/14 00:00:43;;;;;;;29.30;5.80;;;;;;;;;;1639199;30;21568;-61
2022/02/14 00:01:35;;;;;;;28.45;5.53;;;;;;;;;;1638953;30;21617;-61
2022/02/14 00:02:27;;;;;;;26.88;5.68;;;;;;;;;;1639802;30;21561;-61
2022/02/14 00:03:19;;;;;;;34.05;6.22;;;;;;;;;;1639882;30;21546;-61
2022/02/14 00:04:10;;;;;;;51.40;6.25;;;;;;;;;;1639663;29;21573;-60
2022/02/14 00:05:03;;;;;;;45.75;5.93;;;;;;;;;;1639866;30;21561;-60
2022/02/14 00:05:54;;;;;;;48.60;5.90;;;;;;;;;;1638621;30;22002;-61
2022/02/14 00:06:46;;;;;;;44.25;5.88;;;;;;;;;;1638571;30;21913;-61
2022/02/14 00:07:38;;;;;;;34.25;7.10;;;;;;;;;;1639574;30;21719;-61
2022/02/14 00:08:30;;;;;;;63.78;7.45;;;;;;;;;;1639663;29;21655;-61
2022/02/14 00:09:21;;;;;;;83.78;7.07;;;;;;;;;;1639779;30;21562;-61
2022/02/14 00:10:13;;;;;;;66.50;6.80;;;;;;;;;;1639852;30;21572;-62
2022/02/14 00:11:04;;;;;;;60.45;6.05;;;;;;;;;;1638344;30;21739;-61
2022/02/14 00:11:57;;;;;;;78.65;7.85;;;;;;;;;;1639718;30;21957;-61
2022/02/14 00:12:48;;;;;;;90.57;8.60;;;;;;;;;;1639674;29;21550;-61
2022/02/14 00:13:42;;;;;;;120.53;9.50;;;;;;;;;;1633708;30;22049;-61
2022/02/14 00:14:33;;;;;;;69.78;8.20;;;;;;;;;;1633636;30;21500;-61
2022/02/14 00:15:25;;;;;;;56.03;7.82;;;;;;;;;;1637857;30;21689;-61
2022/02/14 00:16:17;;;;;;;39.47;7.53;;;;;;;;;;1639707;29;21579;-61
2022/02/14 00:17:09;;;;;;;37.20;5.55;;;;;;;;;;1639659;29;21606;-61
2022/02/14 00:18:00;;;;;;;36.67;6.60;;;;;;;;;;1639156;30;21564;-61
2022/02/14 00:18:52;;;;;;;25.75;5.72;;;;;;;;;;1638478;30;22142;-61
2022/02/14 00:19:49;;;;;;;54.42;5.90;;;;;;;;;;1636853;30;21519;-61
2022/02/14 00:20:42;;;;;;;34.10;6.05;;;;;;;;;;1638992;30;21865;-61
2022/02/14 00:21:33;;;;;;;35.72;5.65;;;;;;;;;;1639513;29;21734;-61
2022/02/14 00:22:25;;;;;;;34.28;5.85;;;;;;;;;;1639134;29;21579;-61
2022/02/14 00:23:17;;;;;;;51.72;6.40;;;;;;;;;;1639481;30;22279;-62
2022/02/14 00:24:09;;;;;;;18.70;5.32;;;;;;;;;;1639624;29;21515;-62
2022/02/14 00:25:01;;;;;;;22.50;5.78;;;;;;;;;;1639559;30;21689;-61
2022/02/14 00:25:53;;;;;;;29.20;5.25;;;;;;;;;;1639600;30;21525;-61
2022/02/14 00:26:44;;;;;;;50.75;6.05;;;;;;;;;;1638909;30;21871;-61
2022/02/14 00:27:37;;;;;;;24.17;6.32;;;;;;;;;;1639592;29;21922;-61
2022/02/14 00:28:29;;;;;;;18.35;6.45;;;;;;;;;;1639806;29;21930;-61
2022/02/14 00:29:24;;;;;;;20.35;5.53;;;;;;;;;;1644559;29;21498;-61
2022/02/14 00:30:16;;;;;;;28.17;5.40;;;;;;;;;;1645450;29;21518;-61
2022/02/14 00:31:07;;;;;;;20.45;5.25;;;;;;;;;;1639841;29;21548;-61
2022/02/14 00:31:59;;;;;;;21.90;5.85;;;;;;;;;;1639548;30;21933;-61
2022/02/14 00:32:50;;;;;;;13.35;5.03;;;;;;;;;;1639666;30;21533;-61
2022/02/14 00:33:43;;;;;;;12.73;5.13;;;;;;;;;;1639935;30;21544;-61
2022/02/14 00:34:34;;;;;;;22.90;5.28;;;;;;;;;;1639009;29;21732;-61
2022/02/14 00:35:26;;;;;;;27.23;4.95;;;;;;;;;;1639560;29;21512;-61
2022/02/14 00:36:17;;;;;;;31.48;5.18;;;;;;;;;;1639569;29;21559;-61
2022/02/14 00:37:12;;;;;;;20.13;4.80;;;;;;;;;;1639662;30;22039;-61
2022/02/14 00:38:03;;;;;;;36.63;5.90;;;;;;;;;;1639198;30;21506;-61
2022/02/14 00:38:55;;;;;;;12.63;4.70;;;;;;;;;;1639543;29;21747;-61
2022/02/14 00:39:47;;;;;;;9.95;4.70;;;;;;;;;;1639054;30;22190;-61
2022/02/14 00:40:39;;;;;;;23.00;5.05;;;;;;;;;;1643826;29;21551;-61
2022/02/14 00:41:31;;;;;;;14.13;5.05;;;;;;;;;;1639290;29;21516;-61
2022/02/14 00:42:23;;;;;;;29.85;5.45;;;;;;;;;;1639587;29;21540;-62
2022/02/14 00:43:15;;;;;;;29.77;5.95;;;;;;;;;;1639686;29;21675;-60
2022/02/14 00:44:07;;;;;;;21.40;5.07;;;;;;;;;;1639671;29;21591;-60
2022/02/14 00:44:59;;;;;;;21.13;5.03;;;;;;;;;;1639672;29;21577;-61
2022/02/14 00:45:51;;;;;;;28.48;5.53;;;;;;;;;;1638833;30;21680;-62
2022/02/14 00:46:43;;;;;;;25.77;5.78;;;;;;;;;;1639561;29;21554;-61
2022/02/14 00:47:35;;;;;;;34.70;5.57;;;;;;;;;;1639653;30;21649;-61
2022/02/14 00:48:27;;;;;;;27.27;5.20;;;;;;;;;;1638410;29;22211;-61
2022/02/14 00:49:19;;;;;;;36.60;6.13;;;;;;;;;;1637196;30;21510;-61
2022/02/14 00:50:11;;;;;;;40.17;6.63;;;;;;;;;;1639483;30;21874;-60
2022/02/14 00:51:03;;;;;;;42.15;5.68;;;;;;;;;;1635966;30;21887;-61
2022/02/14 00:51:55;;;;;;;34.28;5.47;;;;;;;;;;1639438;30;21780;-62
2022/02/14 00:52:47;;;;;;;31.35;5.10;;;;;;;;;;1638953;30;21798;-62
2022/02/14 00:53:38;;;;;;;39.03;5.75;;;;;;;;;;1632784;30;22075;-61
2022/02/14 00:54:30;;;;;;;26.92;5.57;;;;;;;;;;1632640;30;21574;-62
2022/02/14 00:55:21;;;;;;;17.23;5.15;;;;;;;;;;1636540;30;21558;-62
2022/02/14 00:56:14;;;;;;;36.28;6.22;;;;;;;;;;1639378;30;21588;-62
2022/02/14 00:57:05;;;;;;;21.20;5.18;;;;;;;;;;1639548;29;21651;-61
2022/02/14 00:57:57;;;;;;;41.03;6.60;;;;;;;;;;1638952;29;21670;-61
2022/02/14 00:58:48;;;;;;;18.27;4.97;;;;;;;;;;1639351;30;21499;-61
2022/02/14 00:59:41;;;;;;;32.33;5.60;;;;;;;;;;1639577;30;21906;-61
2022/02/14 01:00:34;;;;;;;21.55;5.38;;;;;;;;;;1635377;30;21661;-62
2022/02/14 01:01:26;;;;;;;46.45;6.05;;;;;;;;;;1638676;30;21706;-61
2022/02/14 01:02:17;;;;;;;23.35;4.93;;;;;;;;;;1639580;30;21604;-60
2022/02/14 01:03:09;;;;;;;38.22;6.13;;;;;;;;;;1639500;30;21506;-61
2022/02/14 01:04:00;;;;;;;43.85;6.22;;;;;;;;;;1638865;30;21540;-61
2022/02/14 01:04:53;;;;;;;22.88;6.13;;;;;;;;;;1639466;29;21653;-61
2022/02/14 01:05:44;;;;;;;39.83;5.30;;;;;;;;;;1639301;30;21572;-61
2022/02/14 01:06:36;;;;;;;22.45;4.80;;;;;;;;;;1639576;30;21552;-61
2022/02/14 01:07:28;;;;;;;19.98;5.00;;;;;;;;;;1638730;30;23271;-60
2022/02/14 01:08:20;;;;;;;36.58;5.25;;;;;;;;;;1639376;30;22036;-62
2022/02/14 01:09:12;;;;;;;13.13;5.65;;;;;;;;;;1639284;30;21549;-60
2022/02/14 01:10:05;;;;;;;16.27;4.55;;;;;;;;;;1639289;29;21512;-61
2022/02/14 01:10:56;;;;;;;13.88;4.82;;;;;;;;;;1638144;30;21675;-61
2022/02/14 01:11:49;;;;;;;23.70;4.88;;;;;;;;;;1640668;29;21509;-62
2022/02/14 01:12:41;;;;;;;18.17;4.70;;;;;;;;;;1639977;29;21912;-61
2022/02/14 01:13:34;;;;;;;7.85;4.40;;;;;;;;;;1640267;30;22592;-60
2022/02/14 01:14:25;;;;;;;12.70;4.90;;;;;;;;;;1640576;30;21560;-62
2022/02/14 01:15:17;;;;;;;17.13;4.53;;;;;;;;;;1639918;29;21544;-60
2022/02/14 01:16:11;;;;;;;30.90;6.50;;;;;;;;;;1640267;29;21571;-61
2022/02/14 01:17:04;;;;;;;13.32;4.85;;;;;;;;;;1640670;29;21542;-61
2022/02/14 01:17:56;;;;;;;10.77;4.32;;;;;;;;;;1639976;30;21626;-62
2022/02/14 01:18:48;;;;;;;8.80;3.97;;;;;;;;;;1639965;30;21550;-62
2022/02/14 01:19:41;;;;;;;9.65;4.35;;;;;;;;;;1640615;30;21515;-62
2022/02/14 01:20:32;;;;;;;14.50;4.22;;;;;;;;;;1640570;30;21527;-61
2022/02/14 01:21:24;;;;;;;31.85;4.85;;;;;;;;;;1639723;30;21616;-62
2022/02/14 01:22:15;;;;;;;20.55;4.50;;;;;;;;;;1639836;30;21554;-61
2022/02/14 01:23:08;;;;;;;12.13;4.55;;;;;;;;;;1640029;30;21526;-61
2022/02/14 01:23:59;;;;;;;9.82;4.85;;;;;;;;;;1634378;30;21562;-61
2022/02/14 01:24:51;;;;;;;26.27;4.40;;;;;;;;;;1639250;30;21516;-61
2022/02/14 01:25:42;;;;;;;14.20;4.65;;;;;;;;;;1640418;29;21616;-62
2022/02/14 01:26:34;;;;;;;22.20;4.63;;;;;;;;;;1640604;29;22215;-61
2022/02/14 01:27:26;;;;;;;19.60;4.47;;;;;;;;;;1640484;29;21595;-61
2022/02/14 01:28:18;;;;;;;10.93;4.47;;;;;;;;;;1639772;30;21575;-62
2022/02/14 01:29:09;;;;;;;19.48;4.72;;;;;;;;;;1640530;29;21604;-61
2022/02/14 01:30:02;;;;;;;12.07;4.35;;;;;;;;;;1640534;29;21688;-62
2022/02/14 01:30:54;;;;;;;11.38;4.70;;;;;;;;;;1639360;29;21523;-61
2022/02/14 01:31:48;;;;;;;22.88;4.40;;;;;;;;;;1640492;30;21643;-61
2022/02/14 01:32:39;;;;;;;47.30;5.10;;;;;;;;;;1640559;29;21527;-61
2022/02/14 01:33:31;;;;;;;63.03;5.60;;;;;;;;;;1640376;30;21561;-61
2022/02/14 01:34:23;;;;;;;177.13;8.35;;;;;;;;;;1639692;30;21527;-61
2022/02/14 01:35:15;;;;;;;144.07;9.90;;;;;;;;;;1639569;30;21560;-61
2022/02/14 01:36:06;;;;;;;119.10;7.57;;;;;;;;;;1640375;29;21519;-61
2022/02/14 01:36:58;;;;;;;98.28;6.43;;;;;;;;;;1640615;29;21552;-61
2022/02/14 01:37:50;;;;;;;70.97;6.15;;;;;;;;;;1639855;29;21688;-61
2022/02/14 01:38:42;;;;;;;60.45;4.97;;;;;;;;;;1640244;30;22008;-61
2022/02/14 01:39:33;;;;;;;66.55;6.90;;;;;;;;;;1640328;29;21519;-61
2022/02/14 01:40:26;;;;;;;49.50;5.05;;;;;;;;;;1640551;29;21509;-61
2022/02/14 01:41:17;;;;;;;36.67;5.00;;;;;;;;;;1639734;29;21543;-61
2022/02/14 01:42:09;;;;;;;72.35;5.45;;;;;;;;;;1639676;30;21677;-61
2022/02/14 01:43:01;;;;;;;34.47;4.63;;;;;;;;;;1640266;30;21570;-61
2022/02/14 01:43:53;;;;;;;22.60;4.13;;;;;;;;;;1640398;30;21520;-61
2022/02/14 01:44:47;;;;;;;38.67;5.22;;;;;;;;;;1640484;29;21589;-61
2022/02/14 01:45:39;;;;;;;23.38;4.75;;;;;;;;;;1639871;29;21657;-61
2022/02/14 01:46:31;;;;;;;64.43;7.38;;;;;;;;;;1640383;29;21552;-61
2022/02/14 01:47:26;;;;;;;13.73;5.05;;;;;;;;;;1640448;30;22075;-61
2022/02/14 01:48:17;;;;;;;44.28;5.25;;;;;;;;;;1634493;30;21488;-61
2022/02/14 01:49:09;;;;;;;26.40;4.55;;;;;;;;;;1636048;30;23939;-61
2022/02/14 01:50:02;;;;;;;14.23;4.57;;;;;;;;;;1640292;30;22001;-62
2022/02/14 01:50:54;;;;;;;12.00;5.13;;;;;;;;;;1639663;29;21535;-61
2022/02/14 01:51:46;;;;;;;22.42;4.75;;;;;;;;;;1640442;30;21536;-61
2022/02/14 01:52:38;;;;;;;18.23;4.47;;;;;;;;;;1640533;29;21591;-61
2022/02/14 01:53:30;;;;;;;16.90;4.60;;;;;;;;;;1639800;30;21603;-61
2022/02/14 01:54:22;;;;;;;19.10;4.80;;;;;;;;;;1639720;30;21512;-61
2022/02/14 01:55:15;;;;;;;14.27;3.97;;;;;;;;;;1640271;29;21605;-61
2022/02/14 01:56:07;;;;;;;16.92;4.18;;;;;;;;;;1640238;29;21610;-61
2022/02/14 01:56:58;;;;;;;18.20;4.60;;;;;;;;;;1640397;30;21991;-61
2022/02/14 01:57:51;;;;;;;20.60;4.53;;;;;;;;;;1639773;30;21655;-61
2022/02/14 01:58:42;;;;;;;23.35;4.05;;;;;;;;;;1640305;29;21572;-62
2022/02/14 01:59:35;;;;;;;9.55;4.13;;;;;;;;;;1640079;29;22120;-62
2022/02/14 02:00:27;;;;;;;67.78;5.65;;;;;;;;;;1640336;29;22025;-60
2022/02/14 02:01:18;;;;;;;39.13;5.25;;;;;;;;;;1639515;29;21890;-61
2022/02/14 02:02:11;;;;;;;34.40;4.28;;;;;;;;;;1639509;29;21640;-61
2022/02/14 02:03:04;;;;;;;12.20;4.60;;;;;;;;;;1637805;30;21513;-60
2022/02/14 02:03:56;;;;;;;10.52;3.97;;;;;;;;;;1640203;30;22171;-61
2022/02/14 02:04:48;;;;;;;12.40;4.20;;;;;;;;;;1640341;29;21958;-60
2022/02/14 02:05:40;;;;;;;51.72;5.88;;;;;;;;;;1640382;30;21540;-61
2022/02/14 02:06:31;;;;;;;38.55;5.57;;;;;;;;;;1639523;29;21560;-61
2022/02/14 02:07:24;;;;;;;45.15;6.10;;;;;;;;;;1640330;30;21706;-61
2022/02/14 02:08:16;;;;;;;53.42;5.88;;;;;;;;;;1640313;29;21526;-62
2022/02/14 02:09:07;;;;;;;17.65;4.70;;;;;;;;;;1639405;30;22120;-62
2022/02/14 02:10:00;;;;;;;31.92;5.10;;;;;;;;;;1640339;29;21666;-62
2022/02/14 02:12:22;;;;;;;28.08;4.35;;;;;;;;;;1639713;30;21517;-62
2022/02/14 02:13:16;;;;;;;;;;;;;;;;;;1640623;30;21643;-61
2022/02/14 02:14:07;;;;;;;13.00;4.85;;;;;;;;;;1640347;30;21389;-61
2022/02/14 02:15:03;;;;;;;10.18;4.05;;;;;;;;;;1640361;30;22004;-61
2022/02/14 02:15:55;;;;;;;20.55;4.63;;;;;;;;;;1640459;30;21560;-62
2022/02/14 02:16:47;;;;;;;25.52;4.30;;;;;;;;;;1639642;30;21625;-62
2022/02/14 02:17:38;;;;;;;17.35;4.90;;;;;;;;;;1640194;30;22244;-61
2022/02/14 02:18:32;;;;;;;9.65;3.72;;;;;;;;;;1640253;29;21527;-62
2022/02/14 02:19:23;;;;;;;17.85;4.68;;;;;;;;;;1639355;29;21547;-61
2022/02/14 02:20:18;;;;;;;19.95;4.38;;;;;;;;;;1640159;29;21753;-62
2022/02/14 02:21:09;;;;;;;15.73;4.13;;;;;;;;;;1639494;29;22100;-62
2022/02/14 02:22:02;;;;;;;11.88;4.05;;;;;;;;;;1639631;30;21508;-62
2022/02/14 02:22:54;;;;;;;10.88;3.65;;;;;;;;;;1639419;30;21550;-62
2022/02/14 02:23:48;;;;;;;10.52;3.95;;;;;;;;;;1640388;29;21926;-61
2022/02/14 02:24:47;;;;;;;6.30;3.92;;;;;;;;;;1640142;30;21544;-62
2022/02/14 02:25:39;;;;;;;25.40;4.10;;;;;;;;;;1640353;29;21876;-63
2022/02/14 02:26:31;;;;;;;13.30;4.00;;;;;;;;;;1639678;29;21750;-62
2022/02/14 02:27:25;;;;;;;7.85;3.85;;;;;;;;;;1639801;30;21515;-62
2022/02/14 02:28:16;;;;;;;32.17;4.75;;;;;;;;;;1634074;30;22039;-62
2022/02/14 02:29:09;;;;;;;30.25;4.88;;;;;;;;;;1639102;30;21595;-62
2022/02/14 02:30:05;;;;;;;9.93;4.30;;;;;;;;;;1640001;30;21561;-62
2022/02/14 02:31:01;;;;;;;13.10;3.85;;;;;;;;;;1635884;30;21548;-62
2022/02/14 02:31:53;;;;;;;28.33;4.55;;;;;;;;;;1639562;29;21849;-61
2022/02/14 02:32:46;;;;;;;22.42;4.18;;;;;;;;;;1640237;30;21498;-60
2022/02/14 02:33:37;;;;;;;11.52;3.88;;;;;;;;;;1634143;30;22113;-62
2022/02/14 02:34:30;;;;;;;10.38;4.10;;;;;;;;;;1638785;30;21648;-61
2022/02/14 02:35:22;;;;;;;10.93;3.60;;;;;;;;;;1639994;29;22073;-61
2022/02/14 02:36:13;;;;;;;10.48;3.67;;;;;;;;;;1634076;30;21612;-61
2022/02/14 02:37:07;;;;;;;14.70;3.90;;;;;;;;;;1638912;30;21553;-61
2022/02/14 02:37:58;;;;;;;10.90;3.85;;;;;;;;;;1639556;30;22146;-61
2022/02/14 02:38:51;;;;;;;43.80;4.70;;;;;;;;;;1640307;29;21993;-61
2022/02/14 02:39:44;;;;;;;10.75;4.07;;;;;;;;;;1640072;29;22009;-61
2022/02/14 02:40:37;;;;;;;13.02;3.72;;;;;;;;;;1639868;29;21544;-61
2022/02/14 02:41:28;;;;;;;20.83;4.72;;;;;;;;;;1639688;30;22024;-61
2022/02/14 02:42:22;;;;;;;16.27;3.97;;;;;;;;;;1640069;30;21513;-60
2022/02/14 02:43:13;;;;;;;18.35;3.80;;;;;;;;;;1639633;30;21972;-61
2022/02/14 02:44:06;;;;;;;14.07;3.42;;;;;;;;;;1639953;29;21701;-60
2022/02/14 02:44:57;;;;;;;16.05;3.70;;;;;;;;;;1640014;29;21691;-60
2022/02/14 02:45:49;;;;;;;10.73;3.65;;;;;;;;;;1639998;30;21549;-61
2022/02/14 02:46:41;;;;;;;9.48;3.85;;;;;;;;;;1639608;29;22298;-61
2022/02/14 02:47:33;;;;;;;12.60;3.60;;;;;;;;;;1640009;30;21936;-60
2022/02/14 02:48:24;;;;;;;9.20;3.70;;;;;;;;;;1634096;30;21586;-60
2022/02/14 02:49:19;;;;;;;6.07;3.53;;;;;;;;;;1639444;30;21502;-60
2022/02/14 02:50:10;;;;;;;7.38;3.70;;;;;;;;;;1640193;30;22079;-61
2022/02/14 02:51:03;;;;;;;10.98;3.42;;;;;;;;;;1638707;30;22067;-61
2022/02/14 02:51:55;;;;;;;13.20;3.97;;;;;;;;;;1640074;30;21505;-61
2022/02/14 02:52:47;;;;;;;8.80;3.97;;;;;;;;;;1640082;30;21537;-61
2022/02/14 02:53:38;;;;;;;8.15;4.20;;;;;;;;;;1640242;29;21518;-61
2022/02/14 02:54:30;;;;;;;5.90;4.47;;;;;;;;;;1639503;30;21652;-60
2022/02/14 02:55:23;;;;;;;6.63;3.70;;;;;;;;;;1639908;29;21600;-61
2022/02/14 02:56:15;;;;;;;6.95;3.78;;;;;;;;;;1640086;30;21675;-61
2022/02/14 02:57:07;;;;;;;5.88;3.83;;;;;;;;;;1640071;29;21683;-61
2022/02/14 02:57:59;;;;;;;5.43;3.53;;;;;;;;;;1639317;29;22031;-61
2022/02/14 02:58:50;;;;;;;4.85;4.10;;;;;;;;;;1640070;30;21533;-60
2022/02/14 02:59:43;;;;;;;31.92;4.93;;;;;;;;;;1639955;30;22159;-60
2022/02/14 03:00:34;;;;;;;72.20;5.90;;;;;;;;;;1639442;30;22048;-61
2022/02/14 03:01:27;;;;;;;50.42;4.55;;;;;;;;;;1632612;30;21795;-60
2022/02/14 03:02:18;;;;;;;37.00;4.72;;;;;;;;;;1633416;30;21557;-61
2022/02/14 03:03:10;;;;;;;47.50;4.85;;;;;;;;;;1637128;30;22208;-61
2022/02/14 03:04:02;;;;;;;41.80;4.68;;;;;;;;;;1639402;30;21550;-60
2022/02/14 03:04:54;;;;;;;9.32;3.78;;;;;;;;;;1639375;30;21561;-61
2022/02/14 03:05:46;;;;;;;15.90;4.18;;;;;;;;;;1639036;30;21578;-61
2022/02/14 03:06:38;;;;;;;21.15;3.88;;;;;;;;;;1639947;29;21969;-61
2022/02/14 03:07:30;;;;;;;29.20;4.45;;;;;;;;;;1640103;29;21505;-61
2022/02/14 03:08:22;;;;;;;20.13;4.07;;;;;;;;;;1638911;30;21613;-61
2022/02/14 03:09:15;;;;;;;7.68;3.60;;;;;;;;;;1639491;30;21661;-60
2022/02/14 03:10:07;;;;;;;17.27;3.38;;;;;;;;;;1636400;30;21522;-61
2022/02/14 03:11:01;;;;;;;11.18;3.63;;;;;;;;;;1635285;30;21586;-61
2022/02/14 03:11:53;;;;;;;10.98;3.97;;;;;;;;;;1639467;30;21547;-61
2022/02/14 03:12:45;;;;;;;11.73;4.25;;;;;;;;;;1640191;30;22042;-61
2022/02/14 03:13:36;;;;;;;20.90;4.55;;;;;;;;;;1639484;30;21551;-61
2022/02/14 03:14:28;;;;;;;18.58;5.45;;;;;;;;;;1639312;30;21658;-61
2022/02/14 03:15:20;;;;;;;30.08;4.18;;;;;;;;;;1640071;29;21887;-61
2022/02/14 03:16:12;;;;;;;16.02;4.25;;;;;;;;;;1639952;29;22060;-61
2022/02/14 03:17:04;;;;;;;23.27;3.80;;;;;;;;;;1639132;30;21609;-61
2022/02/14 03:17:58;;;;;;;22.13;4.10;;;;;;;;;;1639456;30;22086;-61
2022/02/14 03:18:50;;;;;;;18.67;4.20;;;;;;;;;;1639747;30;21573;-61
2022/02/14 03:19:43;;;;;;;21.05;4.55;;;;;;;;;;1639934;30;21492;-61
2022/02/14 03:20:36;;;;;;;17.98;4.63;;;;;;;;;;1640112;30;21575;-61
2022/02/14 03:21:28;;;;;;;13.43;3.63;;;;;;;;;;1638665;29;21609;-61
2022/02/14 03:22:19;;;;;;;12.73;4.57;;;;;;;;;;1637175;30;21540;-61
2022/02/14 03:23:12;;;;;;;15.00;3.58;;;;;;;;;;1639937;29;21643;-61
2022/02/14 03:24:04;;;;;;;12.25;4.25;;;;;;;;;;1639263;30;22189;-61
2022/02/14 03:24:56;;;;;;;5.55;3.63;;;;;;;;;;1639849;29;22210;-61
2022/02/14 03:25:47;;;;;;;11.55;4.20;;;;;;;;;;1639742;30;21594;-61
2022/02/14 03:26:41;;;;;;;25.63;4.60;;;;;;;;;;1639613;30;21509;-62
2022/02/14 03:27:32;;;;;;;22.40;4.43;;;;;;;;;;1638747;30;21521;-62
2022/02/14 03:28:24;;;;;;;15.70;4.22;;;;;;;;;;1636014;30;21496;-61
2022/02/14 03:29:17;;;;;;;55.33;7.10;;;;;;;;;;1637111;30;21571;-61
2022/02/14 03:30:10;;;;;;;20.10;4.40;;;;;;;;;;1640072;30;21682;-61
2022/02/14 03:31:02;;;;;;;37.53;4.72;;;;;;;;;;1638768;29;21668;-61
2022/02/14 03:31:54;;;;;;;29.48;4.20;;;;;;;;;;1639912;30;21604;-61
2022/02/14 03:32:46;;;;;;;10.70;4.05;;;;;;;;;;1639811;29;22160;-61
2022/02/14 03:33:38;;;;;;;7.25;3.90;;;;;;;;;;1639935;29;21658;-61
2022/02/14 03:34:30;;;;;;;11.82;3.55;;;;;;;;;;1639292;30;22135;-61
2022/02/14 03:35:22;;;;;;;20.65;3.65;;;;;;;;;;1639855;29;21568;-61
2022/02/14 03:36:15;;;;;;;24.35;3.72;;;;;;;;;;1645473;29;22283;-61
2022/02/14 03:37:08;;;;;;;31.73;4.80;;;;;;;;;;1639382;30;21526;-61
2022/02/14 03:37:59;;;;;;;57.90;4.90;;;;;;;;;;1635708;30;21637;-61
2022/02/14 03:38:52;;;;;;;21.98;4.38;;;;;;;;;;1634094;30;21507;-61
2022/02/14 03:39:44;;;;;;;14.68;4.03;;;;;;;;;;1639020;30;22060;-61
2022/02/14 03:40:36;;;;;;;12.95;3.85;;;;;;;;;;1639460;29;22157;-61
2022/02/14 03:41:29;;;;;;;16.17;3.95;;;;;;;;;;1638650;30;21683;-61
2022/02/14 03:42:21;;;;;;;9.02;3.90;;;;;;;;;;1639252;30;21574;-61
2022/02/14 03:43:13;;;;;;;27.30;5.63;;;;;;;;;;1639860;30;21627;-61
2022/02/14 03:44:05;;;;;;;11.63;4.10;;;;;;;;;;1639840;29;21537;-61
2022/02/14 03:44:57;;;;;;;11.98;4.32;;;;;;;;;;1639143;29;22230;-61
2022/02/14 03:45:48;;;;;;;13.93;3.65;;;;;;;;;;1639786;30;21578;-61
2022/02/14 03:46:41;;;;;;;14.60;4.13;;;;;;;;;;1639816;30;21663;-61
2022/02/14 03:47:32;;;;;;;17.48;4.47;;;;;;;;;;1638502;30;21563;-61
2022/02/14 03:48:25;;;;;;;12.30;3.47;;;;;;;;;;1639272;30;21716;-61
2022/02/14 03:49:17;;;;;;;6.57;3.67;;;;;;;;;;1635508;30;21556;-61
2022/02/14 03:50:10;;;;;;;72.85;7.05;;;;;;;;;;1636557;30;22172;-61
2022/02/14 03:51:01;;;;;;;56.90;6.45;;;;;;;;;;1638082;30;22070;-61
2022/02/14 03:51:53;;;;;;;74.65;6.10;;;;;;;;;;1639793;30;22193;-61
2022/02/14 03:52:45;;;;;;;32.03;5.03;;;;;;;;;;1639805;29;21547;-62
2022/02/14 03:53:37;;;;;;;21.15;5.18;;;;;;;;;;1639322;29;22058;-62
2022/02/14 03:54:29;;;;;;;14.35;4.00;;;;;;;;;;1639388;30;21563;-61
2022/02/14 03:55:22;;;;;;;22.58;4.40;;;;;;;;;;1633822;30;21848;-61
2022/02/14 03:56:13;;;;;;;26.17;4.35;;;;;;;;;;1638831;30;21629;-61
2022/02/14 03:57:05;;;;;;;26.85;4.82;;;;;;;;;;1639600;30;22139;-61
2022/02/14 03:57:58;;;;;;;19.70;4.28;;;;;;;;;;1639804;29;22071;-61
2022/02/14 03:58:50;;;;;;;12.77;3.72;;;;;;;;;;1639783;30;21549;-61
2022/02/14 03:59:41;;;;;;;10.50;3.88;;;;;;;;;;1639965;30;21657;-61
2022/02/14 04:00:34;;;;;;;19.50;4.10;;;;;;;;;;1639161;30;21520;-61
2022/02/14 04:01:25;;;;;;;17.85;4.13;;;;;;;;;;1643355;29;21526;-60
2022/02/14 04:02:17;;;;;;;16.02;4.20;;;;;;;;;;1643656;29;21512;-60
2022/02/14 04:03:08;;;;;;;18.30;4.35;;;;;;;;;;1640977;29;21587;-61
2022/02/14 04:04:01;;;;;;;10.98;4.32;;;;;;;;;;1639781;30;21645;-61
2022/02/14 04:04:55;;;;;;;9.13;4.00;;;;;;;;;;1639658;29;21572;-61
2022/02/14 04:05:48;;;;;;;8.13;3.83;;;;;;;;;;1639059;30;21670;-60
2022/02/14 04:06:39;;;;;;;11.77;4.50;;;;;;;;;;1639626;30;21507;-61
2022/02/14 04:07:31;;;;;;;19.75;4.10;;;;;;;;;;1639778;29;21495;-61
2022/02/14 04:08:23;;;;;;;14.73;3.83;;;;;;;;;;1639007;30;22091;-62
2022/02/14 04:09:15;;;;;;;8.15;4.00;;;;;;;;;;1639567;30;22105;-61
2022/02/14 04:10:09;;;;;;;31.38;5.63;;;;;;;;;;1639682;29;21966;-61
2022/02/14 04:11:01;;;;;;;11.70;3.92;;;;;;;;;;1638940;30;21813;-61
2022/02/14 04:11:53;;;;;;;20.77;5.03;;;;;;;;;;1639022;29;21533;-60
2022/02/14 04:12:45;;;;;;;9.70;4.38;;;;;;;;;;1639831;29;21626;-61
2022/02/14 04:13:37;;;;;;;13.68;3.85;;;;;;;;;;1639717;29;21648;-61
2022/02/14 04:14:30;;;;;;;5.45;4.20;;;;;;;;;;1639808;30;21953;-61
2022/02/14 04:15:22;;;;;;;9.27;3.92;;;;;;;;;;1638990;30;21559;-61
2022/02/14 04:16:14;;;;;;;7.50;3.75;;;;;;;;;;1639760;30;21963;-62
2022/02/14 04:17:06;;;;;;;9.48;4.50;;;;;;;;;;1639640;30;21978;-61
2022/02/14 04:17:58;;;;;;;9.63;4.75;;;;;;;;;;1639061;30;21582;-61
2022/02/14 04:18:49;;;;;;;7.07;4.00;;;;;;;;;;1639734;29;22096;-61
2022/02/14 04:19:41;;;;;;;7.97;4.70;;;;;;;;;;1639554;30;21748;-61
2022/02/14 04:20:33;;;;;;;9.95;4.22;;;;;;;;;;1639710;29;22052;-60
2022/02/14 04:21:25;;;;;;;6.95;4.07;;;;;;;;;;1638433;29;21632;-61
2022/02/14 04:22:16;;;;;;;12.30;3.70;;;;;;;;;;1639703;29;21493;-61
2022/02/14 04:23:08;;;;;;;6.82;4.18;;;;;;;;;;1639670;29;21977;-61
2022/02/14 04:23:59;;;;;;;5.90;3.85;;;;;;;;;;1639826;30;21538;-61
2022/02/14 04:24:52;;;;;;;6.55;3.80;;;;;;;;;;1639038;30;21563;-61
2022/02/14 04:25:43;;;;;;;4.70;3.65;;;;;;;;;;1639348;30;21588;-61
2022/02/14 04:26:35;;;;;;;9.40;4.03;;;;;;;;;;1639720;29;21879;-62
2022/02/14 04:27:26;;;;;;;4.30;3.90;;;;;;;;;;1639666;29;21532;-61
2022/02/14 04:28:18;;;;;;;7.80;4.05;;;;;;;;;;1639714;30;21977;-62
2022/02/14 04:29:11;;;;;;;5.95;4.15;;;;;;;;;;1637833;30;21574;-60
2022/02/14 04:30:05;;;;;;;9.38;5.03;;;;;;;;;;1638904;30;21623;-61
2022/02/14 04:30:56;;;;;;;10.95;3.83;;;;;;;;;;1637004;30;21869;-61
2022/02/14 04:31:49;;;;;;;5.50;4.55;;;;;;;;;;1639552;30;21650;-61
2022/02/14 04:32:41;;;;;;;5.50;4.45;;;;;;;;;;1639725;29;21970;-61
2022/02/14 04:33:33;;;;;;;5.18;4.28;;;;;;;;;;1638892;29;21547;-60
2022/02/14 04:34:24;;;;;;;4.45;4.10;;;;;;;;;;1639642;30;22123;-60
2022/02/14 04:35:16;;;;;;;7.25;4.70;;;;;;;;;;1639642;30;21588;-61
2022/02/14 04:36:11;;;;;;;18.05;4.13;;;;;;;;;;1639063;30;21565;-61
2022/02/14 04:37:03;;;;;;;26.60;4.65;;;;;;;;;;1638391;30;21620;-61
2022/02/14 04:37:59;;;;;;;26.15;4.60;;;;;;;;;;1636735;30;21585;-61
2022/02/14 04:38:50;;;;;;;27.88;4.90;;;;;;;;;;1639627;30;21581;-61
2022/02/14 04:39:42;;;;;;;47.30;5.95;;;;;;;;;;1639649;29;21615;-61
2022/02/14 04:40:35;;;;;;;55.50;6.40;;;;;;;;;;1638853;29;21513;-61
2022/02/14 04:41:28;;;;;;;20.65;4.93;;;;;;;;;;1638955;30;21739;-60
2022/02/14 04:42:19;;;;;;;27.75;5.15;;;;;;;;;;1639675;30;21529;-61
2022/02/14 04:43:11;;;;;;;14.73;4.80;;;;;;;;;;1638965;30;22086;-61
2022/02/14 04:44:02;;;;;;;22.90;4.85;;;;;;;;;;1639156;30;21586;-61
2022/02/14 04:44:56;;;;;;;38.50;5.85;;;;;;;;;;1638926;29;21669;-61
2022/02/14 04:45:47;;;;;;;32.80;4.82;;;;;;;;;;1639793;30;22045;-61
2022/02/14 04:46:40;;;;;;;35.13;5.45;;;;;;;;;;1640689;29;21572;-61
2022/02/14 04:47:31;;;;;;;18.33;5.15;;;;;;;;;;1640026;30;21646;-61
2022/02/14 04:48:24;;;;;;;7.38;4.53;;;;;;;;;;1640539;30;21534;-61
2022/02/14 04:49:15;;;;;;;26.92;4.75;;;;;;;;;;1640642;30;21569;-61
2022/02/14 04:50:09;;;;;;;20.30;4.30;;;;;;;;;;1640880;30;21728;-61
2022/02/14 04:51:00;;;;;;;12.98;4.32;;;;;;;;;;1639316;30;21798;-61
2022/02/14 04:51:52;;;;;;;25.05;5.18;;;;;;;;;;1640013;30;21602;-61
2022/02/14 04:52:43;;;;;;;16.10;5.10;;;;;;;;;;1640249;30;21531;-61
2022/02/14 04:53:36;;;;;;;9.88;4.68;;;;;;;;;;1638803;30;21553;-61
2022/02/14 04:54:27;;;;;;;18.70;4.57;;;;;;;;;;1640537;29;21585;-61
2022/02/14 04:55:19;;;;;;;9.45;4.55;;;;;;;;;;1640552;30;21542;-61
2022/02/14 04:56:11;;;;;;;10.10;4.75;;;;;;;;;;1640034;30;22138;-61
2022/02/14 04:57:03;;;;;;;7.60;4.53;;;;;;;;;;1640603;30;21508;-61
2022/02/14 04:57:54;;;;;;;8.38;4.90;;;;;;;;;;1640616;30;21675;-61
2022/02/14 04:58:47;;;;;;;14.82;4.45;;;;;;;;;;1640890;29;21542;-60
2022/02/14 04:59:38;;;;;;;6.22;4.60;;;;;;;;;;1639889;29;21572;-61
2022/02/14 05:00:32;;;;;;;7.43;4.60;;;;;;;;;;1636995;30;21647;-62
2022/02/14 05:01:24;;;;;;;4.82;4.32;;;;;;;;;;1639144;30;21561;-61
2022/02/14 05:02:16;;;;;;;15.88;4.50;;;;;;;;;;1640567;30;21709;-60
2022/02/14 05:03:07;;;;;;;13.40;5.35;;;;;;;;;;1639791;29;22127;-60
2022/02/14 05:03:59;;;;;;;10.15;4.75;;;;;;;;;;1640503;30;21889;-61
2022/02/14 05:04:50;;;;;;;26.85;4.85;;;;;;;;;;1640584;30;21525;-61
2022/02/14 05:05:42;;;;;;;8.73;4.53;;;;;;;;;;1639954;30;21728;-60
2022/02/14 05:06:34;;;;;;;30.38;4.72;;;;;;;;;;1640589;30;21564;-61
2022/02/14 05:07:26;;;;;;;45.85;5.53;;;;;;;;;;1640653;30;21515;-61
2022/02/14 05:08:17;;;;;;;15.73;4.85;;;;;;;;;;1639982;29;21519;-60
2022/02/14 05:09:09;;;;;;;10.52;5.38;;;;;;;;;;1640378;29;22008;-61
2022/02/14 05:10:01;;;;;;;11.13;4.50;;;;;;;;;;1640720;29;21573;-61
2022/02/14 05:10:53;;;;;;;14.15;4.10;;;;;;;;;;1639367;30;21577;-61